Time;durP1;ratioP1;P1;durP2;ratioP2;P2;SDS_P1;SDS_P2;PMS_P1;PMS_P2;Temp;Humidity;BMP_temperature;BMP_pressure;BME280_temperature;BME280_humidity;BME280_pressure;Samples;Min_cycle;Max_cycle;Signal;HPM_P1;HPM_P2
2022/09/25 00:01:57;;;;;;;33.97;20.80;;;13.40;99.90;;;;;;5134389;27;20167;-54
2022/09/25 00:04:23;;;;;;;27.25;18.65;;;13.40;99.90;;;;;;5134398;27;20157;-53
2022/09/25 00:06:48;;;;;;;29.65;20.13;;;13.40;99.90;;;;;;5134138;27;20187;-54
2022/09/25 00:09:19;;;;;;;29.90;19.38;;;13.40;99.90;;;;;;5134150;27;20172;-53
2022/09/25 00:11:45;;;;;;;24.30;17.92;;;13.40;99.90;;;;;;5134295;27;20171;-54
2022/09/25 00:14:11;;;;;;;26.85;19.25;;;13.40;99.90;;;;;;5133940;27;20200;-54
2022/09/25 00:16:36;;;;;;;25.65;18.25;;;13.40;99.90;;;;;;5134035;27;20167;-53
2022/09/25 00:21:51;;;;;;;25.40;17.80;;;13.50;99.90;;;;;;5133984;28;20175;-53
2022/09/25 00:24:18;;;;;;;27.98;17.38;;;13.40;99.90;;;;;;5134237;27;20332;-53
2022/09/25 00:26:44;;;;;;;22.40;16.77;;;13.50;99.90;;;;;;5133870;27;20164;-53
2022/09/25 00:29:15;;;;;;;22.83;16.50;;;13.50;99.90;;;;;;5133846;27;20171;-53
2022/09/25 00:31:41;;;;;;;23.67;16.67;;;13.40;99.90;;;;;;5133735;27;20172;-53
2022/09/25 00:34:07;;;;;;;25.25;16.92;;;13.50;99.90;;;;;;5133844;27;20212;-53
2022/09/25 00:36:33;;;;;;;22.13;16.45;;;13.50;99.90;;;;;;5133820;27;20629;-53
2022/09/25 00:38:59;;;;;;;21.83;14.98;;;13.40;99.90;;;;;;5133681;28;20159;-53
2022/09/25 00:41:27;;;;;;;20.58;14.82;;;13.40;99.90;;;;;;5133966;27;20288;-53
2022/09/25 00:43:55;;;;;;;16.75;12.68;;;13.40;99.90;;;;;;5134116;27;20178;-53
2022/09/25 00:46:41;;;;;;;17.25;13.10;;;13.40;99.90;;;;;;5133756;27;20164;-53
2022/09/25 00:49:13;;;;;;;18.83;13.88;;;13.40;99.90;;;;;;5133572;27;20167;-53
2022/09/25 00:52:12;;;;;;;21.35;12.77;;;13.40;99.90;;;;;;5133313;27;20168;-53
2022/09/25 00:54:54;;;;;;;20.55;13.27;;;13.30;99.90;;;;;;5087875;27;1061298;-53
2022/09/25 00:57:25;;;;;;;17.35;13.50;;;13.40;99.90;;;;;;5134302;27;20632;-53
2022/09/25 00:59:56;;;;;;;17.75;12.63;;;13.40;99.90;;;;;;5134613;27;20172;-53
2022/09/25 01:02:30;;;;;;;20.00;13.35;;;13.40;99.90;;;;;;5134170;27;20167;-54
2022/09/25 01:05:01;;;;;;;24.08;12.60;;;13.30;99.90;;;;;;5134564;27;20172;-53
2022/09/25 01:07:28;;;;;;;19.27;12.45;;;13.30;99.90;;;;;;5133172;27;20164;-53
2022/09/25 01:09:58;;;;;;;19.27;12.43;;;13.30;99.90;;;;;;5134734;27;20172;-53
2022/09/25 01:12:24;;;;;;;17.63;11.90;;;13.30;99.90;;;;;;5134424;27;20633;-53
2022/09/25 01:14:50;;;;;;;17.42;11.32;;;13.30;99.90;;;;;;5133224;27;20227;-53
2022/09/25 01:17:21;;;;;;;14.93;10.55;;;13.30;99.90;;;;;;5134099;27;20168;-53
2022/09/25 01:20:26;;;;;;;17.83;11.32;;;13.30;99.90;;;;;;5133821;27;20208;-54
2022/09/25 01:22:54;;;;;;;18.83;11.18;;;13.30;99.90;;;;;;5133772;27;20171;-53
2022/09/25 01:25:44;;;;;;;18.40;11.52;;;13.30;99.90;;;;;;5133761;27;20160;-54
2022/09/25 01:28:17;;;;;;;15.30;10.43;;;13.30;99.90;;;;;;5133667;27;20250;-53
2022/09/25 01:30:47;;;;;;;16.60;10.38;;;13.30;99.90;;;;;;5133566;27;20167;-53
2022/09/25 01:33:18;;;;;;;16.30;11.25;;;13.30;99.90;;;;;;5133520;27;20293;-53
2022/09/25 01:36:13;;;;;;;15.82;11.18;;;13.30;99.90;;;;;;5133549;27;20561;-53
2022/09/25 01:38:50;;;;;;;13.45;10.88;;;13.30;99.90;;;;;;5133521;27;20171;-54
2022/09/25 01:41:29;;;;;;;15.60;10.32;;;13.30;99.90;;;;;;5133528;27;20212;-53
2022/09/25 01:44:21;;;;;;;18.83;10.13;;;13.30;99.90;;;;;;5133802;27;20195;-54
2022/09/25 01:46:50;;;;;;;15.10;11.05;;;13.30;99.90;;;;;;5133220;27;20250;-54
2022/09/25 01:49:24;;;;;;;18.77;9.45;;;13.30;99.90;;;;;;5133285;27;20168;-54
2022/09/25 01:51:53;;;;;;;13.73;8.55;;;13.30;99.90;;;;;;5133471;27;20182;-53
2022/09/25 01:54:44;;;;;;;14.52;8.95;;;13.30;99.90;;;;;;5132793;27;20689;-53
2022/09/25 01:57:26;;;;;;;11.82;7.05;;;13.30;99.90;;;;;;5131770;27;20217;-53
2022/09/25 02:00:10;;;;;;;11.95;7.65;;;13.20;99.90;;;;;;5133495;27;20168;-53
2022/09/25 02:02:44;;;;;;;13.07;6.82;;;13.20;99.90;;;;;;5133161;27;20547;-53
2022/09/25 02:05:16;;;;;;;11.18;6.35;;;13.20;99.90;;;;;;5133130;27;20241;-53
2022/09/25 02:08:04;;;;;;;11.05;6.43;;;13.20;99.90;;;;;;5133045;27;20219;-53
2022/09/25 02:10:36;;;;;;;8.80;5.05;;;13.20;99.90;;;;;;5132976;27;20217;-53
2022/09/25 02:13:09;;;;;;;12.40;5.68;;;13.20;99.90;;;;;;5133099;27;20601;-53
2022/09/25 02:15:45;;;;;;;10.27;5.50;;;13.20;99.90;;;;;;5132975;27;20528;-53
2022/09/25 02:21:08;;;;;;;8.85;5.28;;;13.20;99.90;;;;;;5133192;27;20651;-53
2022/09/25 02:23:57;;;;;;;9.95;5.00;;;13.20;99.90;;;;;;5132897;27;20163;-53
2022/09/25 02:26:31;;;;;;;9.00;5.32;;;13.20;99.90;;;;;;5132963;27;20191;-53
2022/09/25 02:28:58;;;;;;;7.22;5.32;;;13.20;99.90;;;;;;5132867;27;20592;-54
2022/09/25 02:31:49;;;;;;;9.25;5.20;;;13.20;99.90;;;;;;5132862;27;20176;-53
2022/09/25 02:34:15;;;;;;;15.18;5.00;;;13.20;99.90;;;;;;5126703;28;20207;-53
2022/09/25 02:36:42;;;;;;;9.82;4.57;;;13.10;99.90;;;;;;5131258;27;20221;-53
2022/09/25 02:39:08;;;;;;;8.32;5.10;;;13.10;99.90;;;;;;5132677;27;20155;-53
2022/09/25 02:41:51;;;;;;;11.07;5.10;;;13.20;99.90;;;;;;5132549;27;20164;-53
2022/09/25 02:44:39;;;;;;;15.80;5.00;;;13.10;99.90;;;;;;5132516;27;20209;-53
2022/09/25 02:47:41;;;;;;;8.52;5.10;;;13.10;99.90;;;;;;5132657;27;20213;-53
2022/09/25 02:50:10;;;;;;;8.05;4.20;;;13.10;99.90;;;;;;5132596;27;20166;-53
2022/09/25 02:52:43;;;;;;;9.45;4.70;;;13.10;99.90;;;;;;5132424;27;20253;-53
2022/09/25 02:55:18;;;;;;;9.90;4.72;;;13.10;99.90;;;;;;5132387;27;20217;-53
2022/09/25 02:57:56;;;;;;;11.07;4.95;;;13.10;99.90;;;;;;5132460;27;20243;-53
2022/09/25 03:00:22;;;;;;;10.95;4.78;;;13.10;99.90;;;;;;5132959;27;20224;-53
2022/09/25 03:02:52;;;;;;;10.43;4.43;;;13.10;99.90;;;;;;5132309;27;20168;-53
2022/09/25 03:05:20;;;;;;;12.10;5.03;;;13.10;99.90;;;;;;5132631;27;20172;-53
2022/09/25 03:10:34;;;;;;;14.32;5.70;;;13.00;99.90;;;;;;5131737;28;20256;-53
2022/09/25 03:13:21;;;;;;;8.85;5.05;;;12.90;99.90;;;;;;5132321;27;20780;-53
2022/09/25 03:15:51;;;;;;;9.30;5.95;;;13.00;99.90;;;;;;5132509;27;20626;-53
2022/09/25 03:18:17;;;;;;;9.32;5.85;;;13.00;99.90;;;;;;5132237;27;20168;-53
2022/09/25 03:20:43;;;;;;;12.43;6.43;;;12.90;99.90;;;;;;5132196;27;20529;-53
2022/09/25 03:23:10;;;;;;;14.68;5.93;;;12.90;99.90;;;;;;5132513;27;20167;-53
2022/09/25 03:25:36;;;;;;;12.38;6.53;;;12.90;99.90;;;;;;5132141;27;20626;-53
2022/09/25 03:28:02;;;;;;;11.25;5.55;;;12.90;99.90;;;;;;5132406;27;20182;-53
2022/09/25 03:30:28;;;;;;;10.40;5.05;;;12.90;99.90;;;;;;5130867;27;20183;-53
2022/09/25 03:32:54;;;;;;;14.32;5.10;;;12.90;99.90;;;;;;5132328;27;20199;-53
2022/09/25 03:35:20;;;;;;;10.95;4.50;;;12.90;99.90;;;;;;5132324;27;20176;-53
2022/09/25 03:37:45;;;;;;;7.10;4.18;;;12.90;99.90;;;;;;5133006;27;20600;-53
2022/09/25 03:40:11;;;;;;;8.48;3.95;;;12.90;99.90;;;;;;5135804;27;20228;-53
2022/09/25 03:42:37;;;;;;;11.10;4.53;;;12.90;99.90;;;;;;5134546;27;20228;-53
2022/09/25 03:45:05;;;;;;;8.63;4.07;;;12.90;99.90;;;;;;5134511;27;20168;-53
2022/09/25 03:47:30;;;;;;;11.50;3.50;;;12.80;99.90;;;;;;5135960;27;20175;-53
2022/09/25 03:49:56;;;;;;;9.07;3.38;;;12.80;99.90;;;;;;5136096;27;20160;-53
2022/09/25 03:52:21;;;;;;;8.05;3.28;;;12.80;99.90;;;;;;5134764;27;20172;-53
2022/09/25 03:54:47;;;;;;;6.47;2.80;;;12.90;99.90;;;;;;5135467;27;20722;-53
2022/09/25 03:57:13;;;;;;;8.30;3.20;;;12.90;99.90;;;;;;5137634;27;20171;-53
2022/09/25 03:59:39;;;;;;;8.68;2.72;;;12.80;99.90;;;;;;5134227;27;20238;-53
2022/09/25 04:02:05;;;;;;;7.38;2.72;;;12.80;99.90;;;;;;5135529;27;20625;-53
2022/09/25 04:04:31;;;;;;;5.03;2.47;;;12.80;99.90;;;;;;5135415;27;20259;-53
2022/09/25 04:06:56;;;;;;;4.50;2.35;;;12.80;99.90;;;;;;5135497;27;20168;-53
2022/09/25 04:09:22;;;;;;;11.07;2.80;;;12.80;99.90;;;;;;5134413;27;20168;-53
2022/09/25 04:11:48;;;;;;;5.70;2.42;;;12.80;99.90;;;;;;5135279;27;20164;-53
2022/09/25 04:14:13;;;;;;;4.50;3.08;;;12.80;99.90;;;;;;5135089;27;20282;-53
2022/09/25 04:16:39;;;;;;;11.75;2.50;;;12.80;99.90;;;;;;5135116;27;20156;-53
2022/09/25 04:19:05;;;;;;;7.72;2.90;;;12.80;99.90;;;;;;5135105;27;20156;-53
2022/09/25 04:21:31;;;;;;;11.35;2.75;;;12.80;99.90;;;;;;5135252;27;20168;-53
2022/09/25 04:26:40;;;;;;;7.93;2.90;;;12.80;99.90;;;;;;5134991;27;20248;-53
2022/09/25 04:29:06;;;;;;;10.80;3.70;;;12.80;99.90;;;;;;5134933;27;20200;-53
2022/09/25 04:31:33;;;;;;;7.47;3.15;;;12.80;99.90;;;;;;5134916;27;20172;-53
2022/09/25 04:33:58;;;;;;;7.82;3.25;;;12.80;99.90;;;;;;5134961;27;20211;-53
2022/09/25 04:36:24;;;;;;;6.57;3.38;;;12.80;99.90;;;;;;5135404;27;20156;-53
2022/09/25 04:38:49;;;;;;;13.27;3.60;;;12.70;99.90;;;;;;5134725;27;20167;-53
2022/09/25 04:41:18;;;;;;;10.85;3.47;;;12.70;99.90;;;;;;5134655;27;20161;-53
2022/09/25 04:43:44;;;;;;;8.25;4.32;;;12.70;99.90;;;;;;5134595;27;20164;-53
2022/09/25 04:46:11;;;;;;;14.93;4.55;;;12.70;99.90;;;;;;5134919;27;20240;-57
2022/09/25 04:48:37;;;;;;;8.75;4.05;;;12.70;99.90;;;;;;5133279;27;20538;-54
2022/09/25 04:51:04;;;;;;;15.27;3.97;;;12.70;99.90;;;;;;5134582;27;20239;-54
2022/09/25 04:53:31;;;;;;;10.25;3.95;;;12.70;99.90;;;;;;5134227;27;20231;-54
2022/09/25 04:56:02;;;;;;;12.25;4.40;;;12.60;99.90;;;;;;5134502;27;20164;-53
2022/09/25 04:58:28;;;;;;;11.82;4.13;;;12.60;99.90;;;;;;5134391;27;20240;-53
2022/09/25 05:00:54;;;;;;;12.07;4.07;;;12.60;99.90;;;;;;5134813;27;20617;-53
2022/09/25 05:03:19;;;;;;;8.13;4.32;;;12.60;99.90;;;;;;5134361;27;20621;-53
2022/09/25 05:05:45;;;;;;;13.48;4.82;;;12.50;99.90;;;;;;5134313;27;20168;-54
2022/09/25 05:08:10;;;;;;;14.77;4.60;;;12.50;99.90;;;;;;5134238;27;20182;-53
2022/09/25 05:10:38;;;;;;;10.68;4.70;;;12.50;99.90;;;;;;5134088;27;20212;-53
2022/09/25 05:13:04;;;;;;;16.38;5.20;;;12.40;99.90;;;;;;5134210;27;20203;-53
2022/09/25 05:15:32;;;;;;;11.50;5.35;;;12.50;99.90;;;;;;5134038;27;20164;-53
2022/09/25 05:18:10;;;;;;;11.07;4.80;;;12.40;99.90;;;;;;5133873;27;20164;-53
2022/09/25 05:20:36;;;;;;;13.23;5.40;;;12.40;99.90;;;;;;5133930;27;20187;-53
2022/09/25 05:23:03;;;;;;;9.30;5.07;;;12.30;99.90;;;;;;5133896;27;20637;-53
2022/09/25 05:25:29;;;;;;;9.98;4.43;;;12.30;99.90;;;;;;5134059;27;20259;-53
2022/09/25 05:27:57;;;;;;;8.20;4.10;;;12.30;99.90;;;;;;5134122;27;20160;-53
2022/09/25 05:30:25;;;;;;;12.05;5.18;;;12.30;99.90;;;;;;5134128;27;20639;-53
2022/09/25 05:32:51;;;;;;;8.35;4.63;;;12.30;99.90;;;;;;5133895;27;20171;-53
2022/09/25 05:35:23;;;;;;;10.02;4.40;;;12.30;99.90;;;;;;5133793;27;20592;-53
2022/09/25 05:37:49;;;;;;;9.00;4.25;;;12.30;99.90;;;;;;5133543;27;20163;-53
2022/09/25 05:40:15;;;;;;;12.45;4.70;;;12.20;99.90;;;;;;5133374;27;20224;-53
2022/09/25 05:42:44;;;;;;;14.15;4.22;;;12.20;99.90;;;;;;5133190;27;20167;-53
2022/09/25 05:45:11;;;;;;;11.82;6.05;;;12.10;99.90;;;;;;5133428;27;20168;-53
2022/09/25 05:47:37;;;;;;;11.73;4.40;;;12.20;99.90;;;;;;5133428;27;20185;-53
2022/09/25 05:50:03;;;;;;;9.55;4.40;;;12.10;99.90;;;;;;5133180;27;20558;-53
2022/09/25 05:52:30;;;;;;;13.55;4.25;;;12.20;99.90;;;;;;5133335;27;20250;-53
2022/09/25 05:54:56;;;;;;;11.18;4.20;;;12.20;99.90;;;;;;5133035;27;20247;-53
2022/09/25 05:57:22;;;;;;;13.23;3.92;;;12.20;99.90;;;;;;5133382;27;20207;-54
2022/09/25 05:59:48;;;;;;;9.45;3.25;;;12.20;99.90;;;;;;5132762;27;20164;-53
2022/09/25 06:02:15;;;;;;;12.18;3.60;;;12.20;99.90;;;;;;5133165;27;20183;-53
2022/09/25 06:04:41;;;;;;;6.75;3.53;;;12.30;99.90;;;;;;5133049;27;20160;-53
2022/09/25 06:07:08;;;;;;;8.48;3.25;;;12.30;99.90;;;;;;5133029;27;20177;-53
2022/09/25 06:09:34;;;;;;;7.45;4.25;;;12.30;99.90;;;;;;5132899;27;20647;-53
2022/09/25 06:12:01;;;;;;;8.77;3.20;;;12.30;99.90;;;;;;5132915;27;20639;-53
2022/09/25 06:14:26;;;;;;;9.68;2.97;;;12.30;99.90;;;;;;5133041;27;20274;-53
2022/09/25 06:16:52;;;;;;;9.27;2.97;;;12.30;99.90;;;;;;5133584;27;20163;-54
2022/09/25 06:19:17;;;;;;;7.60;3.47;;;12.40;99.90;;;;;;5132531;27;20218;-53
2022/09/25 06:21:43;;;;;;;8.75;2.90;;;12.40;99.90;;;;;;5132810;27;20152;-53
2022/09/25 06:24:09;;;;;;;8.35;2.90;;;12.50;99.90;;;;;;5132877;27;20160;-54
2022/09/25 06:26:35;;;;;;;7.57;3.38;;;12.50;99.90;;;;;;5132910;27;20191;-54
2022/09/25 06:29:02;;;;;;;7.78;3.25;;;12.60;99.90;;;;;;5132868;27;20198;-54
2022/09/25 06:31:28;;;;;;;12.65;2.97;;;12.70;99.90;;;;;;5132712;27;20163;-53
2022/09/25 06:33:54;;;;;;;7.63;3.05;;;12.80;99.90;;;;;;5133044;27;20538;-53
2022/09/25 06:36:19;;;;;;;6.40;2.90;;;12.90;99.90;;;;;;5132698;27;20233;-53
2022/09/25 06:38:45;;;;;;;5.68;2.63;;;13.00;99.90;;;;;;5132732;27;20164;-53
2022/09/25 06:41:11;;;;;;;9.15;2.45;;;13.00;99.90;;;;;;5131276;28;20175;-53
2022/09/25 06:43:36;;;;;;;10.82;3.97;;;13.00;99.90;;;;;;5132467;27;20156;-53
2022/09/25 06:46:02;;;;;;;6.43;2.72;;;13.20;99.90;;;;;;5132556;27;20251;-53
2022/09/25 06:48:29;;;;;;;7.47;2.40;;;13.20;99.90;;;;;;5132386;27;20168;-53
2022/09/25 06:50:56;;;;;;;9.27;2.88;;;13.20;99.90;;;;;;5132760;27;20593;-53
2022/09/25 06:53:23;;;;;;;12.70;3.03;;;13.30;99.90;;;;;;5131412;28;20221;-54
2022/09/25 06:55:49;;;;;;;10.63;2.92;;;13.30;99.90;;;;;;5131928;27;20176;-53
2022/09/25 06:58:18;;;;;;;7.63;2.35;;;13.40;99.90;;;;;;5132074;27;20630;-53
2022/09/25 07:00:48;;;;;;;9.77;2.85;;;13.40;99.90;;;;;;5131774;27;20644;-53
2022/09/25 07:06:02;;;;;;;9.88;2.65;;;13.50;99.90;;;;;;5131751;28;20321;-53
2022/09/25 07:08:28;;;;;;;5.53;2.75;;;13.80;99.90;;;;;;5131613;27;20271;-53
2022/09/25 07:10:55;;;;;;;6.63;2.50;;;14.00;99.90;;;;;;5131966;27;20637;-53
2022/09/25 07:13:23;;;;;;;5.18;2.30;;;14.10;99.90;;;;;;5135394;27;20283;-53
2022/09/25 07:15:53;;;;;;;7.55;2.92;;;14.30;99.90;;;;;;5136235;27;20709;-53
2022/09/25 07:18:20;;;;;;;8.68;2.92;;;14.60;99.90;;;;;;5136404;27;20172;-53
2022/09/25 07:20:45;;;;;;;9.65;2.42;;;14.60;99.90;;;;;;5136096;27;20160;-53
2022/09/25 07:23:12;;;;;;;4.22;2.25;;;14.60;99.90;;;;;;5136319;27;20171;-54
2022/09/25 07:25:38;;;;;;;9.13;2.47;;;14.80;99.90;;;;;;5136135;27;20621;-53
2022/09/25 07:28:04;;;;;;;6.13;2.78;;;14.80;99.90;;;;;;5136129;27;20201;-53
2022/09/25 07:30:29;;;;;;;7.47;2.20;;;14.70;99.90;;;;;;5136227;27;20254;-53
2022/09/25 07:32:55;;;;;;;6.97;3.40;;;14.50;99.90;;;;;;5135973;27;20168;-53
2022/09/25 07:35:21;;;;;;;12.15;3.22;;;14.40;99.90;;;;;;5136277;27;20172;-53
2022/09/25 07:37:46;;;;;;;9.02;2.90;;;14.40;99.90;;;;;;5134680;27;20207;-53
2022/09/25 07:40:13;;;;;;;6.97;3.03;;;14.30;99.90;;;;;;5134936;27;20172;-52
2022/09/25 07:42:39;;;;;;;5.57;2.80;;;14.20;99.90;;;;;;5134333;27;20167;-56
2022/09/25 07:45:05;;;;;;;9.77;2.67;;;14.10;99.90;;;;;;5134609;27;20160;-56
2022/09/25 07:47:31;;;;;;;6.95;2.33;;;14.00;99.90;;;;;;5133515;27;20176;-54
2022/09/25 07:49:57;;;;;;;9.05;2.30;;;13.90;99.90;;;;;;5134437;27;20164;-55
2022/09/25 07:52:23;;;;;;;13.15;3.55;;;13.90;99.90;;;;;;5134948;27;20164;-53
2022/09/25 07:54:48;;;;;;;14.63;3.50;;;13.90;99.90;;;;;;5133845;27;20695;-53
2022/09/25 07:57:15;;;;;;;6.55;2.60;;;14.00;99.90;;;;;;5134588;27;20168;-53
2022/09/25 07:59:41;;;;;;;9.00;2.67;;;13.90;99.90;;;;;;5134650;27;20171;-53
2022/09/25 08:02:08;;;;;;;7.07;3.00;;;13.90;99.90;;;;;;5134218;27;20164;-53
2022/09/25 08:04:34;;;;;;;15.70;2.83;;;13.90;99.90;;;;;;5134342;27;20274;-53
2022/09/25 08:07:00;;;;;;;7.50;2.58;;;13.90;99.90;;;;;;5134344;27;20612;-53
2022/09/25 08:09:25;;;;;;;10.65;3.22;;;14.00;99.90;;;;;;5134022;27;20644;-53
2022/09/25 08:11:51;;;;;;;7.18;2.72;;;14.00;99.90;;;;;;5134226;27;20171;-53
2022/09/25 08:14:17;;;;;;;13.25;3.15;;;14.10;99.90;;;;;;5132614;27;20200;-54
2022/09/25 08:16:43;;;;;;;7.97;2.40;;;14.10;99.90;;;;;;5134130;27;20522;-53
2022/09/25 08:19:10;;;;;;;8.10;3.33;;;14.10;99.90;;;;;;5132411;27;20172;-53
2022/09/25 08:21:36;;;;;;;7.18;2.85;;;14.30;99.90;;;;;;5134253;27;20168;-54
2022/09/25 08:24:02;;;;;;;12.15;2.80;;;14.30;99.90;;;;;;5133421;27;20171;-62
2022/09/25 08:26:29;;;;;;;10.52;3.25;;;14.50;99.90;;;;;;5134013;27;20168;-55
2022/09/25 08:28:55;;;;;;;8.57;2.75;;;14.70;99.90;;;;;;5133713;27;20175;-51
2022/09/25 08:31:21;;;;;;;10.82;3.13;;;14.80;99.90;;;;;;5134139;27;20245;-55
2022/09/25 08:33:48;;;;;;;10.30;3.53;;;14.80;99.90;;;;;;5133534;27;20270;-54
2022/09/25 08:36:15;;;;;;;9.25;3.40;;;14.90;99.90;;;;;;5122798;27;20169;-53
2022/09/25 08:38:41;;;;;;;7.68;3.00;;;15.00;99.90;;;;;;5116069;27;20164;-54
2022/09/25 08:41:13;;;;;;;14.45;3.38;;;15.10;99.90;;;;;;5127323;27;20164;-53
2022/09/25 08:43:59;;;;;;;9.65;3.20;;;15.20;99.90;;;;;;5133401;27;20179;-53
2022/09/25 08:50:20;;;;;;;7.63;2.72;;;15.50;99.90;;;;;;5133327;27;20179;-54
2022/09/25 08:52:50;;;;;;;9.65;2.97;;;15.60;99.90;;;;;;5132688;27;20200;-54
2022/09/25 08:55:22;;;;;;;7.15;2.88;;;15.80;99.90;;;;;;5131582;27;20651;-54
2022/09/25 08:57:50;;;;;;;9.85;2.85;;;15.70;99.90;;;;;;5133269;27;20217;-54
2022/09/25 09:00:19;;;;;;;13.88;4.00;;;15.60;99.90;;;;;;5133107;27;20633;-54
2022/09/25 09:02:56;;;;;;;11.40;2.92;;;15.90;99.90;;;;;;5132943;27;20625;-54
2022/09/25 09:05:25;;;;;;;7.07;2.60;;;16.00;99.90;;;;;;5133210;27;20206;-54
2022/09/25 09:08:02;;;;;;;11.77;2.92;;;15.90;99.90;;;;;;5133356;27;20179;-54
2022/09/25 09:10:52;;;;;;;9.82;2.75;;;16.00;99.90;;;;;;5131412;27;20172;-54
2022/09/25 09:13:35;;;;;;;7.22;2.88;;;16.20;99.90;;;;;;5132881;27;20243;-54
2022/09/25 09:16:01;;;;;;;11.10;3.53;;;15.90;99.90;;;;;;5132710;27;20252;-54
2022/09/25 09:18:28;;;;;;;6.10;2.30;;;16.20;99.90;;;;;;5132769;27;20300;-54
2022/09/25 09:21:05;;;;;;;8.95;2.83;;;16.60;99.90;;;;;;5133082;27;20665;-54
2022/09/25 09:23:48;;;;;;;7.07;2.95;;;16.40;99.90;;;;;;5132645;27;20628;-54
2022/09/25 09:26:45;;;;;;;10.13;2.92;;;16.00;99.90;;;;;;5132752;27;20254;-54
2022/09/25 09:29:42;;;;;;;7.47;2.45;;;15.90;99.90;;;;;;5112577;27;20182;-54
2022/09/25 09:32:36;;;;;;;9.32;2.40;;;15.80;99.90;;;;;;5126729;27;20215;-54
2022/09/25 09:35:22;;;;;;;6.85;2.38;;;15.90;99.90;;;;;;5131302;27;20195;-54
2022/09/25 09:38:13;;;;;;;4.47;2.45;;;15.80;99.90;;;;;;5132319;27;20171;-54
2022/09/25 09:41:00;;;;;;;7.43;2.55;;;16.10;99.90;;;;;;5132019;27;20168;-54
2022/09/25 09:44:05;;;;;;;12.32;3.08;;;16.10;99.90;;;;;;5132596;27;20168;-54
2022/09/25 09:47:03;;;;;;;4.20;1.90;;;15.90;99.90;;;;;;5132332;27;20530;-54
2022/09/25 09:49:34;;;;;;;8.32;2.40;;;16.40;99.90;;;;;;5132258;27;20160;-54
2022/09/25 09:52:17;;;;;;;8.68;2.67;;;16.80;99.90;;;;;;5132391;27;20167;-54
2022/09/25 09:54:50;;;;;;;6.93;2.75;;;16.60;99.90;;;;;;5131824;27;20334;-54
2022/09/25 09:57:27;;;;;;;6.47;3.22;;;16.70;99.90;;;;;;5130749;27;20749;-54
2022/09/25 10:00:04;;;;;;;6.88;2.35;;;16.50;99.90;;;;;;5132362;27;20186;-54
2022/09/25 10:02:42;;;;;;;5.55;2.00;;;16.30;99.90;;;;;;5132123;27;20160;-54
2022/09/25 10:05:22;;;;;;;5.68;2.03;;;16.80;99.90;;;;;;5132014;27;20168;-54
2022/09/25 10:07:50;;;;;;;5.45;2.42;;;17.10;99.90;;;;;;5132038;27;20191;-54
2022/09/25 10:10:17;;;;;;;7.50;2.60;;;17.20;99.90;;;;;;5131728;27;20573;-54
2022/09/25 10:12:49;;;;;;;13.52;2.80;;;17.40;99.90;;;;;;5131506;27;20541;-54
2022/09/25 10:15:38;;;;;;;7.10;2.75;;;17.70;99.90;;;;;;5131845;27;20298;-54
2022/09/25 10:18:05;;;;;;;8.35;2.35;;;18.00;99.90;;;;;;5131451;27;20170;-54
2022/09/25 10:20:57;;;;;;;2.80;2.20;;;18.00;99.90;;;;;;5131502;27;20164;-54
2022/09/25 10:23:57;;;;;;;8.13;2.30;;;17.70;99.90;;;;;;5132049;27;20171;-54
2022/09/25 10:26:43;;;;;;;4.85;2.00;;;17.80;99.90;;;;;;5132348;27;20180;-54
2022/09/25 10:29:08;;;;;;;5.82;2.17;;;17.40;99.90;;;;;;5131118;27;20211;-54
2022/09/25 10:31:37;;;;;;;6.53;2.80;;;17.50;99.90;;;;;;5131619;27;20248;-54
2022/09/25 10:34:21;;;;;;;5.03;2.10;;;18.00;99.90;;;;;;5131359;27;20199;-54
2022/09/25 10:36:52;;;;;;;6.63;3.17;;;18.10;99.90;;;;;;5129973;27;20168;-54
2022/09/25 10:39:39;;;;;;;6.82;2.35;;;18.30;99.90;;;;;;5131160;27;20179;-54
2022/09/25 10:42:36;;;;;;;8.35;2.78;;;18.50;99.90;;;;;;5131208;27;20181;-54
2022/09/25 10:45:25;;;;;;;27.38;15.63;;;18.20;99.90;;;;;;5130446;27;20247;-54
2022/09/25 10:50:36;;;;;;;7.38;4.55;;;17.20;99.90;;;;;;5135551;27;20228;-54
2022/09/25 10:53:04;;;;;;;8.32;2.65;;;17.20;99.90;;;;;;5135201;27;20156;-54
2022/09/25 10:55:49;;;;;;;6.20;3.60;;;17.40;99.90;;;;;;5135366;27;20234;-54
2022/09/25 10:58:21;;;;;;;9.00;2.50;;;17.70;99.90;;;;;;5135647;27;20587;-54
2022/09/25 11:00:50;;;;;;;5.47;2.40;;;18.10;99.90;;;;;;5135565;27;20254;-54
2022/09/25 11:03:39;;;;;;;10.88;3.83;;;18.20;99.90;;;;;;5133973;27;20171;-54
2022/09/25 11:06:28;;;;;;;14.43;12.13;;;17.70;99.90;;;;;;5135274;27;20168;-54
2022/09/25 11:09:06;;;;;;;8.55;5.18;;;17.30;99.90;;;;;;5135793;27;20539;-54
2022/09/25 11:11:32;;;;;;;7.85;2.60;;;17.30;99.90;;;;;;5134926;27;20220;-54
2022/09/25 11:14:02;;;;;;;13.18;9.07;;;17.50;99.90;;;;;;5135029;27;20208;-55
2022/09/25 11:17:04;;;;;;;20.10;12.75;;;17.80;99.90;;;;;;5135456;27;20170;-54
2022/09/25 11:19:35;;;;;;;4.03;1.98;;;17.60;99.90;;;;;;5112967;27;20631;-54
2022/09/25 11:22:09;;;;;;;5.97;1.60;;;17.50;99.90;;;;;;5135051;27;20179;-54
2022/09/25 11:25:14;;;;;;;3.03;1.58;;;17.70;99.90;;;;;;5135089;27;20160;-54
2022/09/25 11:28:05;;;;;;;3.40;1.40;;;17.80;99.90;;;;;;5098793;27;20186;-54
2022/09/25 11:30:39;;;;;;;3.28;1.92;;;17.60;99.90;;;;;;5134802;27;20632;-54
2022/09/25 11:33:41;;;;;;;4.50;1.80;;;17.60;99.90;;;;;;5134389;27;20169;-54
2022/09/25 11:36:22;;;;;;;5.43;1.48;;;17.60;99.90;;;;;;5133545;27;20159;-54
2022/09/25 11:41:59;;;;;;;8.98;2.40;;;17.60;99.90;;;;;;5133371;27;20174;-54
2022/09/25 11:44:33;;;;;;;4.78;1.92;;;17.30;99.90;;;;;;5134461;27;20187;-54
2022/09/25 11:47:31;;;;;;;3.28;1.75;;;17.00;99.90;;;;;;5134165;27;20170;-54
2022/09/25 11:50:00;;;;;;;5.20;2.30;;;16.80;99.90;;;;;;5134732;27;20176;-54
2022/09/25 11:52:41;;;;;;;5.30;2.10;;;16.80;99.90;;;;;;5134070;27;20156;-54
2022/09/25 11:55:35;;;;;;;6.30;2.58;;;16.70;99.90;;;;;;5133986;27;20301;-54
2022/09/25 11:58:28;;;;;;;7.57;4.20;;;16.90;99.90;;;;;;5133680;27;20160;-54
2022/09/25 12:01:13;;;;;;;2.78;1.58;;;17.10;99.90;;;;;;5132640;27;20246;-54
2022/09/25 12:03:53;;;;;;;5.82;2.33;;;17.40;99.90;;;;;;5132788;27;20183;-54
2022/09/25 12:06:47;;;;;;;3.85;1.52;;;17.80;99.90;;;;;;5134045;27;20216;-54
2022/09/25 12:09:22;;;;;;;4.57;1.30;;;18.00;99.90;;;;;;5134330;27;20222;-54
2022/09/25 12:11:57;;;;;;;4.97;1.48;;;18.20;99.90;;;;;;5133822;27;20170;-54
2022/09/25 12:14:30;;;;;;;4.40;1.50;;;18.20;99.90;;;;;;5134217;27;20199;-54
2022/09/25 12:17:18;;;;;;;4.00;1.25;;;18.50;99.90;;;;;;5132456;27;20164;-54
2022/09/25 12:19:55;;;;;;;2.67;1.35;;;18.60;99.90;;;;;;5132645;27;20176;-54
2022/09/25 12:22:50;;;;;;;2.10;1.55;;;18.40;99.90;;;;;;5134336;27;20167;-54
2022/09/25 12:25:31;;;;;;;9.07;2.50;;;17.70;99.90;;;;;;5127586;27;20178;-54
2022/09/25 12:28:02;;;;;;;11.32;4.93;;;17.30;99.90;;;;;;5133864;27;20246;-54
2022/09/25 12:30:38;;;;;;;17.88;7.72;;;17.00;99.90;;;;;;5133761;27;20621;-54
2022/09/25 12:33:21;;;;;;;14.43;8.30;;;16.80;99.90;;;;;;5133671;27;20166;-54
2022/09/25 12:36:16;;;;;;;4.55;2.38;;;16.80;99.90;;;;;;5133676;27;20218;-54
2022/09/25 12:38:56;;;;;;;3.95;1.25;;;17.30;99.90;;;;;;5132073;27;20180;-54
2022/09/25 12:41:27;;;;;;;4.22;1.67;;;17.70;99.90;;;;;;5133909;27;20238;-54
2022/09/25 12:44:16;;;;;;;3.42;1.50;;;17.90;99.90;;;;;;5132025;27;20156;-54
2022/09/25 12:46:49;;;;;;;4.93;2.00;;;18.20;99.90;;;;;;5133275;27;20164;-54
2022/09/25 12:49:22;;;;;;;4.28;1.98;;;18.10;99.90;;;;;;5133623;27;20527;-54
2022/09/25 12:51:53;;;;;;;5.60;2.80;;;17.70;99.90;;;;;;5133335;27;20168;-54
2022/09/25 12:54:29;;;;;;;2.53;1.75;;;18.00;99.90;;;;;;5132904;27;20227;-54
2022/09/25 12:56:59;;;;;;;2.85;1.90;;;18.20;99.90;;;;;;5132992;27;20159;-54
2022/09/25 12:59:36;;;;;;;8.60;4.25;;;18.40;99.90;;;;;;5132512;27;20194;-54
2022/09/25 13:02:01;;;;;;;4.03;2.28;;;18.50;99.90;;;;;;5132599;27;20167;-54
2022/09/25 13:05:02;;;;;;;5.57;2.13;;;18.60;99.90;;;;;;5133214;27;20164;-55
2022/09/25 13:07:45;;;;;;;5.88;2.90;;;18.60;99.90;;;;;;5132980;27;20534;-55
2022/09/25 13:10:37;;;;;;;2.65;1.90;;;18.40;99.90;;;;;;5132164;27;20533;-54
2022/09/25 13:13:08;;;;;;;3.55;2.13;;;18.60;99.90;;;;;;5132912;27;20221;-52
2022/09/25 13:15:37;;;;;;;2.28;1.25;;;18.60;99.90;;;;;;5132225;27;20202;-53
2022/09/25 13:18:05;;;;;;;2.58;0.82;;;18.70;99.90;;;;;;5132705;27;20213;-52
2022/09/25 13:20:35;;;;;;;1.88;1.20;;;18.80;99.90;;;;;;5132611;27;20171;-52
2022/09/25 13:23:13;;;;;;;2.58;1.23;;;18.60;99.90;;;;;;5132444;27;20180;-52
2022/09/25 13:25:40;;;;;;;2.25;1.35;;;18.00;99.90;;;;;;5132528;27;20585;-52
2022/09/25 13:28:08;;;;;;;3.08;1.60;;;17.70;99.90;;;;;;5132456;27;20716;-53
2022/09/25 13:30:34;;;;;;;3.78;1.88;;;17.70;99.90;;;;;;5132232;27;20175;-54
2022/09/25 13:33:02;;;;;;;2.10;1.50;;;18.20;99.90;;;;;;5132061;27;20184;-53